Time;durP1;ratioP1;P1;durP2;ratioP2;P2;SDS_P1;SDS_P2;PMS_P1;PMS_P2;Temp;Humidity;BMP_temperature;BMP_pressure;BME280_temperature;BME280_humidity;BME280_pressure;Samples;Min_cycle;Max_cycle;Signal;HPM_P1;HPM_P2
2023/06/24 06:48:20;;;;;;;0.77;0.60;;;24.30;99.90;;;;;;5069937;28;20591;-90
2023/06/24 06:50:53;;;;;;;0.70;0.70;;;24.10;99.90;;;;;;5100339;28;20058;-91
2023/06/24 06:53:24;;;;;;;0.73;0.60;;;23.90;1.00;;;;;;5078778;28;20035;-87
2023/06/24 06:55:53;;;;;;;0.82;0.80;;;24.10;99.90;;;;;;5103274;27;20086;-88
2023/06/24 06:58:34;;;;;;;;;;;;;;;;;;;;;
2023/06/24 07:01:04;;;;;;;0.60;0.45;;;23.50;1.00;;;;;;5112482;28;20039;-89
2023/06/24 07:03:35;;;;;;;1.23;0.95;;;23.40;95.80;;;;;;5114855;28;20486;-87
2023/06/24 07:06:01;;;;;;;1.30;1.00;;;23.40;99.90;;;;;;5077908;28;20047;-87
2023/06/24 07:08:29;;;;;;;1.17;0.98;;;23.50;1.00;;;;;;5077444;28;20042;-86
2023/06/24 07:11:07;;;;;;;1.45;1.10;;;23.50;1.00;;;;;;5062254;28;20047;-88
2023/06/24 07:13:50;;;;;;;0.95;0.60;;;23.60;99.90;;;;;;5074999;28;20039;-88
2023/06/24 07:16:17;;;;;;;1.25;1.15;;;23.60;25.00;;;;;;5078972;28;20495;-87
2023/06/24 07:18:53;;;;;;;1.00;0.75;;;23.60;1.00;;;;;;5089316;27;20485;-87
2023/06/24 07:21:20;;;;;;;2.45;1.42;;;23.60;1.00;;;;;;5118235;27;20074;-87
2023/06/24 07:23:49;;;;;;;0.82;0.82;;;23.70;99.90;;;;;;5100819;27;20047;-88
2023/06/24 07:26:14;;;;;;;1.83;1.30;;;24.50;99.90;;;;;;5089317;27;20043;-89
2023/06/24 07:28:46;;;;;;;1.25;1.15;;;23.80;99.90;;;;;;5084761;27;20042;-91
2023/06/24 07:31:23;;;;;;;1.50;1.40;;;24.00;5.00;;;;;;5085309;27;20039;-91
2023/06/24 07:33:49;;;;;;;0.98;0.85;;;24.20;1.00;;;;;;5100947;27;20054;-87
2023/06/24 07:36:20;;;;;;;1.10;1.00;;;24.10;1.00;;;;;;5103103;28;20047;-86
2023/06/24 07:38:49;;;;;;;0.88;0.68;;;24.00;99.90;;;;;;5080178;27;20402;-85
2023/06/24 07:41:24;;;;;;;0.82;0.70;;;23.80;99.90;;;;;;5108293;27;20039;-88
2023/06/24 07:43:50;;;;;;;0.80;0.80;;;23.60;99.90;;;;;;5093519;27;20054;-87
2023/06/24 07:46:16;;;;;;;1.35;1.10;;;23.50;99.90;;;;;;5076452;27;20043;-88
2023/06/24 07:48:56;;;;;;;1.45;1.27;;;23.40;1.00;;;;;;5097490;27;20533;-88
2023/06/24 07:51:44;;;;;;;0.82;0.70;;;23.10;1.00;;;;;;5098533;27;20051;-88
2023/06/24 07:54:13;;;;;;;1.35;1.23;;;22.50;99.90;;;;;;5093415;27;20368;-88
2023/06/24 07:56:42;;;;;;;1.38;0.70;;;23.20;1.00;;;;;;5091812;27;20047;-88
2023/06/24 07:59:13;;;;;;;1.27;0.63;;;23.20;1.00;;;;;;5088332;27;20154;-94
2023/06/24 08:01:41;;;;;;;1.35;1.20;;;23.10;99.90;;;;;;5088303;27;20051;-89
2023/06/24 08:04:16;;;;;;;;;;;;;;;;;;;;;
2023/06/24 08:06:46;;;;;;;0.73;0.52;;;22.60;99.90;;;;;;5109215;27;21198;-87
2023/06/24 08:09:12;;;;;;;;;;;23.50;1.00;;;;;;5105836;27;20379;-89
2023/06/24 08:11:38;;;;;;;1.25;0.88;;;24.50;65.20;;;;;;5096959;27;19938;-88
2023/06/24 08:14:06;;;;;;;0.88;0.70;;;23.90;1.00;;;;;;5110095;27;20040;-87
2023/06/24 08:16:37;;;;;;;1.05;0.93;;;24.70;1.00;;;;;;5115318;27;20074;-90
2023/06/24 08:19:06;;;;;;;0.40;0.40;;;24.00;99.90;;;;;;5114944;27;20121;-90
2023/06/24 08:21:41;;;;;;;0.88;0.65;;;24.10;99.90;;;;;;5074997;27;20043;-87
2023/06/24 08:24:14;;;;;;;0.73;0.63;;;23.30;99.90;;;;;;5111510;27;20050;-88
2023/06/24 08:26:45;;;;;;;0.47;0.47;;;24.30;99.90;;;;;;5094864;27;20047;-87
2023/06/24 08:29:18;;;;;;;0.50;0.40;;;24.50;1.00;;;;;;5096586;27;20099;-90
2023/06/24 08:31:47;;;;;;;0.30;0.30;;;24.70;1.00;;;;;;5082237;27;20068;-88
2023/06/24 08:34:15;;;;;;;0.82;0.52;;;24.90;1.00;;;;;;5075727;27;20131;-91
2023/06/24 08:36:41;;;;;;;0.47;0.30;;;24.90;99.90;;;;;;5098050;27;20070;-88
2023/06/24 08:39:10;;;;;;;0.20;0.20;;;24.20;99.90;;;;;;5095413;27;20047;-88
2023/06/24 08:41:43;;;;;;;0.50;0.40;;;25.00;99.90;;;;;;5073431;27;20068;-89
2023/06/24 08:44:09;;;;;;;1.27;0.80;;;25.10;61.70;;;;;;5068029;28;20105;-88
2023/06/24 08:46:37;;;;;;;0.77;0.40;;;25.10;90.80;;;;;;5078205;27;20047;-89
2023/06/24 08:49:28;;;;;;;0.13;0.13;;;25.10;1.00;;;;;;5090982;28;20091;-90
2023/06/24 08:52:11;;;;;;;0.20;0.20;;;25.60;1.00;;;;;;5079667;28;20043;-88
2023/06/24 08:55:01;;;;;;;0.32;0.32;;;24.90;1.00;;;;;;5073968;28;20048;-90
2023/06/24 08:57:32;;;;;;;0.32;0.32;;;24.90;1.00;;;;;;5075755;28;20051;-90
2023/06/24 09:00:00;;;;;;;0.63;0.63;;;24.70;84.30;;;;;;5088172;27;20043;-89
2023/06/24 09:02:35;;;;;;;0.82;0.40;;;25.40;1.00;;;;;;5078623;28;20073;-88
2023/06/24 09:05:00;;;;;;;0.38;0.38;;;24.80;34.60;;;;;;5078615;28;20060;-95
2023/06/24 09:07:29;;;;;;;0.40;0.40;;;24.90;74.20;;;;;;5087640;27;20508;-93
2023/06/24 09:09:55;;;;;;;0.50;0.50;;;24.90;30.70;;;;;;5092147;27;20046;-95
2023/06/24 09:12:32;;;;;;;0.38;0.32;;;24.90;77.40;;;;;;5094148;27;20039;-91
2023/06/24 09:15:05;;;;;;;0.55;0.47;;;24.90;43.00;;;;;;5094162;28;20072;-87
2023/06/24 09:17:31;;;;;;;0.40;0.38;;;24.70;73.00;;;;;;5113702;27;20043;-89
2023/06/24 09:20:04;;;;;;;0.60;0.60;;;24.70;99.90;;;;;;5079942;27;20447;-91
2023/06/24 09:22:35;;;;;;;0.20;0.20;;;24.70;1.00;;;;;;5112786;28;20047;-89
2023/06/24 09:25:04;;;;;;;0.35;0.35;;;24.70;1.00;;;;;;5101118;28;20043;-93
2023/06/24 09:27:32;;;;;;;0.43;0.43;;;24.80;1.00;;;;;;5112885;28;20035;-88
2023/06/24 09:30:00;;;;;;;0.73;0.50;;;24.90;32.80;;;;;;5115432;27;20047;-91
2023/06/24 09:32:30;;;;;;;0.57;0.45;;;25.10;1.00;;;;;;5077900;28;20047;-92
2023/06/24 09:35:11;;;;;;;0.73;0.73;;;25.10;1.00;;;;;;5117287;28;20054;-91
2023/06/24 09:37:40;;;;;;;0.20;0.20;;;25.30;1.00;;;;;;5081189;28;20047;-90
2023/06/24 09:40:09;;;;;;;0.95;0.77;;;25.40;1.00;;;;;;5095986;28;20407;-92
2023/06/24 09:42:46;;;;;;;0.47;0.47;;;25.50;1.00;;;;;;5096842;28;20073;-89
2023/06/24 09:45:12;;;;;;;0.50;0.50;;;25.60;1.00;;;;;;5115876;27;20487;-89
2023/06/24 09:47:38;;;;;;;;;;;25.70;1.00;;;;;;5114750;27;20122;-89
2023/06/24 09:50:17;;;;;;;0.30;0.30;;;25.70;99.90;;;;;;5102533;27;19927;-88
2023/06/24 09:52:44;;;;;;;0.47;0.47;;;25.40;99.90;;;;;;5103907;27;20380;-88
2023/06/24 09:55:24;;;;;;;0.60;0.45;;;25.80;99.90;;;;;;5086708;27;20543;-88
2023/06/24 09:58:03;;;;;;;;;;;;;;;;;;;;;
2023/06/24 10:00:30;;;;;;;0.40;0.40;;;26.00;99.90;;;;;;5088079;28;20517;-88
2023/06/24 10:02:56;;;;;;;;;;;26.00;99.90;;;;;;5079935;28;20040;-88
2023/06/24 10:05:22;;;;;;;0.40;0.30;;;26.40;99.90;;;;;;5066366;28;19989;-88
2023/06/24 10:07:48;;;;;;;;;;;25.50;99.90;;;;;;5081700;28;20047;-88
2023/06/24 10:10:14;;;;;;;0.53;0.40;;;26.10;99.90;;;;;;5067038;28;19920;-88
2023/06/24 10:12:40;;;;;;;;;;;26.10;99.90;;;;;;5096607;28;20517;-87
2023/06/24 10:15:06;;;;;;;0.32;0.32;;;26.10;99.90;;;;;;5093217;28;19920;-88
2023/06/24 10:17:32;;;;;;;0.50;0.38;;;26.20;99.90;;;;;;5065453;28;20048;-88
2023/06/24 10:20:03;;;;;;;0.47;0.47;;;26.20;99.90;;;;;;5080613;28;20048;-87
2023/06/24 10:22:31;;;;;;;0.30;0.30;;;26.30;99.90;;;;;;5081886;28;20127;-87
2023/06/24 10:25:00;;;;;;;0.30;0.30;;;25.40;99.90;;;;;;5105482;27;20123;-85
2023/06/24 10:27:27;;;;;;;0.50;0.30;;;26.30;99.90;;;;;;5126672;27;20185;-87
2023/06/24 10:29:56;;;;;;;0.47;0.43;;;26.20;99.90;;;;;;5090833;27;20039;-85
2023/06/24 10:32:23;;;;;;;0.50;0.50;;;25.60;99.90;;;;;;5100406;27;20039;-88
2023/06/24 10:34:56;;;;;;;0.57;0.40;;;26.50;99.90;;;;;;5100036;27;20055;-84
2023/06/24 10:37:30;;;;;;;0.60;0.55;;;26.50;99.90;;;;;;5130633;27;20050;-86
2023/06/24 10:39:57;;;;;;;0.30;0.30;;;26.70;99.90;;;;;;5106168;27;20394;-86
2023/06/24 10:42:33;;;;;;;0.73;0.32;;;26.70;99.90;;;;;;5102262;27;20047;-85
2023/06/24 10:45:18;;;;;;;0.40;0.40;;;26.80;99.90;;;;;;5102438;27;20402;-84
2023/06/24 10:47:47;;;;;;;0.40;0.40;;;26.80;99.90;;;;;;5091705;27;20061;-86
2023/06/24 10:50:17;;;;;;;0.52;0.52;;;26.80;99.90;;;;;;5119081;27;20047;-88
2023/06/24 10:52:55;;;;;;;0.45;0.45;;;26.80;99.90;;;;;;5086862;28;20054;-87
2023/06/24 10:55:27;;;;;;;0.40;0.40;;;26.90;99.90;;;;;;5099022;28;20058;-89
2023/06/24 10:57:53;;;;;;;0.32;0.30;;;27.00;99.90;;;;;;5061459;28;20052;-89
2023/06/24 11:00:20;;;;;;;;;;;27.20;99.90;;;;;;5089582;27;20393;-88
2023/06/24 11:02:46;;;;;;;0.52;0.52;;;27.30;99.90;;;;;;5080965;28;19919;-88
2023/06/24 11:05:14;;;;;;;0.32;0.32;;;27.50;99.90;;;;;;5078699;28;20372;-87
2023/06/24 11:07:40;;;;;;;0.65;0.57;;;27.50;99.90;;;;;;5077779;28;20491;-87
2023/06/24 11:10:14;;;;;;;0.40;0.40;;;27.60;99.90;;;;;;5097689;28;20042;-87
2023/06/24 11:12:42;;;;;;;0.77;0.77;;;27.50;99.90;;;;;;5097396;28;20040;-89
2023/06/24 11:15:14;;;;;;;1.05;0.60;;;27.50;99.90;;;;;;5100362;28;20051;-90
2023/06/24 11:17:45;;;;;;;0.60;0.60;;;27.60;99.90;;;;;;5076047;28;20032;-88
2023/06/24 11:20:19;;;;;;;0.40;0.40;;;27.70;99.90;;;;;;5080821;28;20059;-89
2023/06/24 11:22:56;;;;;;;0.40;0.40;;;27.60;99.90;;;;;;5068181;28;20055;-90
2023/06/24 11:25:39;;;;;;;0.43;0.30;;;26.90;99.90;;;;;;5061783;28;20054;-89
2023/06/24 11:28:24;;;;;;;0.50;0.50;;;27.80;99.90;;;;;;5063650;27;20486;-88
2023/06/24 11:30:52;;;;;;;0.80;0.60;;;28.30;99.90;;;;;;5119215;27;20161;-89
2023/06/24 11:33:28;;;;;;;0.25;0.25;;;28.00;99.90;;;;;;5099471;28;20054;-90
2023/06/24 11:36:01;;;;;;;0.52;0.43;;;28.00;99.90;;;;;;5100457;28;20116;-90
2023/06/24 11:38:31;;;;;;;0.65;0.65;;;28.00;99.90;;;;;;5080656;28;20044;-89
2023/06/24 11:40:58;;;;;;;0.30;0.30;;;27.90;99.90;;;;;;5074693;28;20080;-90
2023/06/24 11:43:44;;;;;;;0.70;0.63;;;27.80;99.90;;;;;;5077700;28;20047;-92
2023/06/24 11:46:33;;;;;;;;;;;;;;;;;;;;;
2023/06/24 11:49:06;;;;;;;0.50;0.50;;;27.90;99.90;;;;;;5104801;28;20051;-90
2023/06/24 11:51:41;;;;;;;0.55;0.55;;;28.00;99.90;;;;;;5077768;28;20044;-89
2023/06/24 11:54:10;;;;;;;0.55;0.50;;;27.90;99.90;;;;;;5070429;28;20052;-89
2023/06/24 11:56:39;;;;;;;0.55;0.52;;;27.80;99.90;;;;;;5097540;28;20081;-89
2023/06/24 11:59:08;;;;;;;0.40;0.40;;;27.50;99.90;;;;;;5090433;28;20052;-89
2023/06/24 12:01:37;;;;;;;0.40;0.40;;;27.80;99.90;;;;;;5094495;28;20074;-89
2023/06/24 12:04:23;;;;;;;0.45;0.30;;;27.90;99.90;;;;;;5062475;28;20052;-88
2023/06/24 12:06:49;;;;;;;0.43;0.43;;;27.80;99.90;;;;;;5090882;28;20129;-89
2023/06/24 12:09:26;;;;;;;0.40;0.40;;;27.50;99.90;;;;;;5098328;28;20040;-89
2023/06/24 12:11:52;;;;;;;0.45;0.35;;;27.60;99.90;;;;;;5100473;28;20079;-88
2023/06/24 12:14:23;;;;;;;0.35;0.35;;;27.20;99.90;;;;;;5070783;28;20479;-88
2023/06/24 12:16:57;;;;;;;0.30;0.30;;;27.50;99.90;;;;;;5082183;28;20036;-89
2023/06/24 12:19:23;;;;;;;0.65;0.60;;;26.70;99.90;;;;;;5080029;28;20418;-90
2023/06/24 12:21:51;;;;;;;0.28;0.28;;;27.00;99.90;;;;;;5081554;28;20047;-89
2023/06/24 12:24:23;;;;;;;0.47;0.47;;;27.90;99.90;;;;;;5092597;28;20126;-90
2023/06/24 12:26:52;;;;;;;0.50;0.50;;;28.20;99.90;;;;;;5056241;28;20036;-89
2023/06/24 12:29:30;;;;;;;0.60;0.55;;;28.30;99.90;;;;;;5076784;28;20076;-90
2023/06/24 12:31:56;;;;;;;0.45;0.45;;;29.00;99.90;;;;;;5045561;28;20475;-90
2023/06/24 12:34:36;;;;;;;1.13;0.30;;;28.70;99.90;;;;;;5044578;28;20070;-89
2023/06/24 12:37:49;;;;;;;;;;;;;;;;;;;;;
2023/06/24 12:40:26;;;;;;;0.40;0.40;;;28.40;99.90;;;;;;5113684;27;20093;-90
2023/06/24 12:43:05;;;;;;;1.33;0.50;;;28.50;99.90;;;;;;5101427;27;20131;-88
2023/06/24 12:45:33;;;;;;;0.52;0.47;;;28.50;99.90;;;;;;5085928;27;20040;-90
2023/06/24 12:48:12;;;;;;;0.32;0.32;;;28.00;99.90;;;;;;5078139;27;20070;-90
2023/06/24 12:50:52;;;;;;;0.68;0.60;;;28.40;99.90;;;;;;5086108;27;20043;-90
2023/06/24 12:56:13;;;;;;;0.57;0.47;;;28.30;99.90;;;;;;5076980;28;20101;-90
2023/06/24 12:58:39;;;;;;;0.88;0.63;;;27.70;99.90;;;;;;5091585;27;20047;-87
2023/06/24 13:01:07;;;;;;;0.98;0.63;;;28.10;99.90;;;;;;5063007;28;20054;-87
2023/06/24 13:03:33;;;;;;;0.80;0.47;;;27.90;99.90;;;;;;5062097;28;20040;-87
2023/06/24 13:05:58;;;;;;;0.50;0.50;;;27.80;99.90;;;;;;5096177;27;20043;-88
2023/06/24 13:08:24;;;;;;;0.70;0.40;;;27.80;99.90;;;;;;5068127;27;20047;-87
2023/06/24 13:10:50;;;;;;;0.50;0.50;;;28.20;99.90;;;;;;5117790;27;20129;-92
2023/06/24 13:13:16;;;;;;;0.32;0.32;;;27.70;99.90;;;;;;5101966;27;20406;-88
2023/06/24 13:15:55;;;;;;;0.60;0.50;;;27.60;99.90;;;;;;5083956;27;20070;-88
2023/06/24 13:18:25;;;;;;;0.85;0.52;;;27.70;99.90;;;;;;5136868;27;20051;-95
2023/06/24 13:20:51;;;;;;;0.30;0.30;;;27.70;99.90;;;;;;5120561;27;20054;-92
2023/06/24 13:23:22;;;;;;;0.40;0.40;;;28.00;99.90;;;;;;5101587;27;20420;-93
2023/06/24 13:25:47;;;;;;;0.30;0.30;;;28.30;99.90;;;;;;5120197;27;20039;-89
2023/06/24 13:28:13;;;;;;;0.50;0.50;;;28.50;99.90;;;;;;5101617;28;20080;-94
2023/06/24 13:30:41;;;;;;;0.50;0.30;;;28.70;99.90;;;;;;5092932;28;20433;-96
2023/06/24 13:33:12;;;;;;;0.28;0.28;;;29.00;99.90;;;;;;5124639;28;20042;-96
2023/06/24 13:36:42;;;;;;;0.68;0.68;;;28.20;99.90;;;;;;5118935;28;20043;-95
2023/06/24 13:39:48;;;;;;;;;;;;;;;;;;;;;
2023/06/24 13:42:33;;;;;;;0.63;0.63;;;28.70;99.90;;;;;;5092216;28;20049;-94
2023/06/24 13:48:39;;;;;;;;;;;;;;;;;;;;;
2023/06/24 13:53:46;;;;;;;0.43;0.40;;;28.50;99.90;;;;;;5171171;23;20046;-95
2023/06/24 13:56:17;;;;;;;0.50;0.50;;;27.80;99.90;;;;;;5024958;28;20049;-94
2023/06/24 13:58:44;;;;;;;0.10;0.10;;;27.70;99.90;;;;;;5002790;28;20038;-91
2023/06/24 14:01:35;;;;;;;0.45;0.40;;;28.10;99.90;;;;;;4997988;28;20041;-95
2023/06/24 14:04:39;;;;;;;0.40;0.30;;;27.90;99.90;;;;;;5012572;28;20045;-93
2023/06/24 14:07:11;;;;;;;1.25;0.50;;;27.60;99.90;;;;;;4993091;28;20121;-93
2023/06/24 14:09:42;;;;;;;0.60;0.60;;;27.90;99.90;;;;;;5008603;28;20049;-94
2023/06/24 14:12:13;;;;;;;0.40;0.40;;;27.80;99.90;;;;;;5001868;28;20087;-94
2023/06/24 14:14:55;;;;;;;0.52;0.52;;;27.80;99.90;;;;;;4990926;28;20049;-95
2023/06/24 14:17:26;;;;;;;0.50;0.40;;;27.80;99.90;;;;;;4980408;28;20049;-93
2023/06/24 14:20:07;;;;;;;0.80;0.50;;;27.90;99.90;;;;;;5006269;28;20081;-95
2023/06/24 14:22:37;;;;;;;0.63;0.47;;;27.60;99.90;;;;;;4996531;28;20057;-94
2023/06/24 14:25:08;;;;;;;0.52;0.50;;;27.60;99.90;;;;;;4983370;28;20056;-94
2023/06/24 14:27:52;;;;;;;;;;;;;;;;;;;;;
2023/06/24 14:30:18;;;;;;;0.45;0.45;;;27.50;99.90;;;;;;5018064;28;20044;-94
2023/06/24 14:32:50;;;;;;;0.80;0.80;;;27.50;99.90;;;;;;5001322;28;20051;-94
2023/06/24 14:35:45;;;;;;;0.40;0.40;;;27.50;99.90;;;;;;4998202;28;20463;-93
2023/06/24 14:38:15;;;;;;;0.50;0.50;;;27.40;99.90;;;;;;4989168;28;20056;-93
2023/06/24 14:40:46;;;;;;;1.90;0.63;;;27.30;99.90;;;;;;4993475;28;20038;-92
2023/06/24 14:43:14;;;;;;;0.75;0.75;;;27.40;99.90;;;;;;5027750;28;20041;-88
2023/06/24 14:45:42;;;;;;;0.40;0.30;;;27.50;99.90;;;;;;4990873;28;20041;-86
2023/06/24 14:48:13;;;;;;;0.50;0.50;;;27.40;99.90;;;;;;4991046;28;20397;-89
2023/06/24 14:50:39;;;;;;;0.30;0.25;;;27.50;99.90;;;;;;5008183;28;20628;-89
2023/06/24 14:53:09;;;;;;;0.57;0.57;;;26.90;99.90;;;;;;5004518;28;20133;-89
2023/06/24 14:55:37;;;;;;;2.00;0.90;;;27.40;99.90;;;;;;5022272;28;20045;-89
2023/06/24 14:58:05;;;;;;;0.40;0.40;;;27.40;99.90;;;;;;5002982;28;20978;-90
2023/06/24 15:00:30;;;;;;;0.38;0.38;;;27.40;99.90;;;;;;5015939;28;20041;-86
2023/06/24 15:02:56;;;;;;;0.60;0.60;;;27.30;99.90;;;;;;4988959;28;20068;-89
2023/06/24 15:05:33;;;;;;;0.50;0.50;;;27.30;99.90;;;;;;5010248;28;20100;-89
2023/06/24 15:08:02;;;;;;;0.30;0.30;;;26.60;99.90;;;;;;4999745;28;20050;-86
2023/06/24 15:10:30;;;;;;;0.52;0.47;;;27.20;99.90;;;;;;5005318;28;20481;-86
2023/06/24 15:12:56;;;;;;;0.60;0.60;;;27.20;99.90;;;;;;5002071;28;20046;-86
2023/06/24 15:15:22;;;;;;;0.57;0.50;;;27.10;99.90;;;;;;4982454;28;20140;-86
2023/06/24 15:17:48;;;;;;;0.47;0.38;;;27.10;99.90;;;;;;5010183;28;20129;-85
2023/06/24 15:20:14;;;;;;;0.55;0.40;;;27.10;99.90;;;;;;5001649;28;20404;-86
2023/06/24 15:22:45;;;;;;;0.47;0.47;;;27.00;99.90;;;;;;5003906;28;20059;-89
2023/06/24 15:25:26;;;;;;;0.47;0.40;;;27.00;99.90;;;;;;5000226;28;20037;-92
2023/06/24 15:28:18;;;;;;;0.55;0.43;;;26.70;99.90;;;;;;5015293;28;20057;-92
2023/06/24 15:30:43;;;;;;;0.68;0.40;;;26.40;99.90;;;;;;5000797;28;20080;-90
2023/06/24 15:33:19;;;;;;;0.63;0.50;;;27.00;99.90;;;;;;5001347;28;20457;-90
2023/06/24 15:35:47;;;;;;;0.47;0.47;;;27.60;99.90;;;;;;4991519;28;20041;-86
2023/06/24 15:38:16;;;;;;;0.50;0.47;;;27.00;99.90;;;;;;4981811;28;20318;-88
2023/06/24 15:40:43;;;;;;;1.17;1.08;;;27.10;99.90;;;;;;4988173;28;20046;-88
2023/06/24 15:43:09;;;;;;;0.30;0.30;;;27.10;99.90;;;;;;4973217;28;20081;-88
2023/06/24 15:45:38;;;;;;;0.60;0.60;;;27.10;99.90;;;;;;5012756;28;20100;-85
2023/06/24 15:48:09;;;;;;;0.30;0.30;;;27.00;99.90;;;;;;4982732;28;20119;-87
2023/06/24 15:50:38;;;;;;;0.20;0.20;;;26.10;99.90;;;;;;5002645;28;20038;-87
2023/06/24 15:53:07;;;;;;;0.38;0.38;;;26.80;99.90;;;;;;5028201;28;20057;-86
2023/06/24 15:55:32;;;;;;;0.40;0.40;;;26.90;99.90;;;;;;4999542;28;20057;-87
2023/06/24 15:57:58;;;;;;;;;;;26.80;99.90;;;;;;4999856;28;20041;-86
2023/06/24 16:00:27;;;;;;;0.40;0.40;;;26.80;99.90;;;;;;4994216;28;19928;-87
2023/06/24 16:02:53;;;;;;;0.60;0.60;;;26.50;99.90;;;;;;4996080;28;20046;-87
2023/06/24 16:05:18;;;;;;;;;;;26.00;99.90;;;;;;4977967;28;20059;-86
2023/06/24 16:07:44;;;;;;;0.75;0.35;;;26.80;99.90;;;;;;5002157;28;19925;-87
2023/06/24 16:10:10;;;;;;;;;;;26.70;99.90;;;;;;4994705;28;20037;-87
2023/06/24 16:12:36;;;;;;;0.55;0.40;;;26.70;99.90;;;;;;4998622;28;20012;-87
2023/06/24 16:15:02;;;;;;;0.50;0.43;;;26.70;99.90;;;;;;5009683;28;20049;-86
2023/06/24 16:17:27;;;;;;;0.47;0.45;;;26.70;99.90;;;;;;5001895;28;20052;-87
2023/06/24 16:19:53;;;;;;;;;;;26.70;99.90;;;;;;5002126;28;20042;-86
2023/06/24 16:22:19;;;;;;;0.47;0.30;;;26.70;99.90;;;;;;5023916;28;19921;-86
2023/06/24 16:24:44;;;;;;;0.75;0.63;;;26.60;99.90;;;;;;5008454;28;20045;-87
2023/06/24 16:27:10;;;;;;;0.38;0.38;;;26.60;99.90;;;;;;5006499;28;20042;-87
2023/06/24 16:29:36;;;;;;;;;;;26.70;99.90;;;;;;5007592;28;20045;-88
2023/06/24 16:32:02;;;;;;;0.68;0.60;;;26.70;99.90;;;;;;5003360;28;19929;-86
2023/06/24 16:34:27;;;;;;;0.38;0.38;;;26.60;99.90;;;;;;5015217;28;20129;-87
2023/06/24 16:36:53;;;;;;;0.77;0.45;;;26.60;99.90;;;;;;4984332;28;20104;-88
2023/06/24 16:39:19;;;;;;;0.70;0.52;;;26.60;99.90;;;;;;5001206;28;20088;-88
2023/06/24 16:41:47;;;;;;;0.40;0.40;;;26.50;99.90;;;;;;4987568;28;20041;-87
2023/06/24 16:44:19;;;;;;;0.30;0.30;;;26.50;99.90;;;;;;5003593;28;20472;-88
2023/06/24 16:46:53;;;;;;;0.65;0.65;;;26.50;99.90;;;;;;5003568;28;20053;-88
2023/06/24 16:49:19;;;;;;;0.20;0.20;;;26.40;99.90;;;;;;5002881;28;20459;-88
2023/06/24 16:51:52;;;;;;;;;;;26.30;99.90;;;;;;5004104;28;20452;-88
2023/06/24 16:54:24;;;;;;;0.30;0.30;;;26.30;99.90;;;;;;4997108;28;19937;-84
2023/06/24 16:56:53;;;;;;;0.30;0.30;;;26.20;99.90;;;;;;5012951;28;20046;-87
2023/06/24 16:59:21;;;;;;;0.30;0.30;;;26.30;99.90;;;;;;5012120;28;20049;-87
2023/06/24 17:01:47;;;;;;;1.08;0.50;;;26.30;99.90;;;;;;5013718;28;20034;-86
2023/06/24 17:04:16;;;;;;;;;;;26.30;99.90;;;;;;5014045;28;20104;-85
2023/06/24 17:06:41;;;;;;;0.40;0.40;;;26.10;99.90;;;;;;4997684;28;20008;-85
2023/06/24 17:09:09;;;;;;;;;;;26.10;99.90;;;;;;4996858;28;20106;-87
2023/06/24 17:11:35;;;;;;;0.43;0.43;;;26.00;99.90;;;;;;5015150;28;19968;-87
2023/06/24 17:14:01;;;;;;;;;;;26.00;99.90;;;;;;5013475;28;20100;-88
2023/06/24 17:16:42;;;;;;;0.43;0.35;;;25.90;99.90;;;;;;4998679;28;19987;-88
2023/06/24 17:19:21;;;;;;;0.30;0.30;;;25.90;99.90;;;;;;4996189;28;20486;-85
2023/06/24 17:21:56;;;;;;;1.17;1.08;;;25.80;99.90;;;;;;4982161;28;20053;-85
2023/06/24 17:24:24;;;;;;;0.68;0.50;;;25.70;99.90;;;;;;4997408;28;20056;-85
2023/06/24 17:26:52;;;;;;;;;;;25.70;99.90;;;;;;4997009;28;20077;-86
2023/06/24 17:29:33;;;;;;;0.40;0.40;;;25.70;1.00;;;;;;5028944;28;19936;-88
2023/06/24 17:32:10;;;;;;;0.30;0.30;;;25.50;1.00;;;;;;4998188;28;20045;-85
2023/06/24 17:34:54;;;;;;;;;;;;;;;;;;;;;
2023/06/24 17:37:36;;;;;;;0.30;0.30;;;25.50;1.00;;;;;;4998065;28;20054;-90
2023/06/24 17:40:13;;;;;;;0.73;0.60;;;25.60;1.00;;;;;;4980181;28;20069;-84
2023/06/24 17:42:43;;;;;;;0.47;0.47;;;25.40;1.00;;;;;;4996010;28;20120;-85
2023/06/24 17:45:17;;;;;;;1.13;0.80;;;25.60;1.00;;;;;;4996407;28;20132;-85
2023/06/24 17:47:45;;;;;;;0.50;0.50;;;25.50;1.00;;;;;;4995719;28;20390;-85
2023/06/24 17:50:19;;;;;;;0.50;0.50;;;25.00;1.00;;;;;;4996194;28;20045;-85
2023/06/24 17:52:45;;;;;;;0.45;0.45;;;25.40;1.00;;;;;;4995931;28;20453;-86
2023/06/24 17:55:11;;;;;;;;;;;25.40;1.00;;;;;;4997634;28;20116;-86
2023/06/24 17:57:39;;;;;;;0.25;0.25;;;25.40;1.00;;;;;;4996304;28;19925;-86
2023/06/24 18:00:06;;;;;;;0.65;0.65;;;25.30;1.00;;;;;;4997644;28;20046;-87
2023/06/24 18:02:34;;;;;;;0.40;0.40;;;25.20;1.00;;;;;;4996677;28;20057;-87
2023/06/24 18:05:00;;;;;;;0.47;0.47;;;25.10;1.00;;;;;;4965108;28;20081;-86
2023/06/24 18:07:26;;;;;;;;;;;25.00;1.00;;;;;;4985822;28;20050;-87
2023/06/24 18:09:57;;;;;;;0.45;0.45;;;25.00;1.00;;;;;;4984956;28;19929;-84
2023/06/24 18:12:25;;;;;;;1.02;0.70;;;24.90;1.00;;;;;;4967785;28;20049;-88
2023/06/24 18:14:54;;;;;;;1.35;0.40;;;24.90;1.00;;;;;;4965261;28;20161;-87
2023/06/24 18:17:20;;;;;;;0.75;0.75;;;25.00;1.00;;;;;;4982832;28;20053;-88
2023/06/24 18:19:49;;;;;;;0.52;0.32;;;24.30;1.00;;;;;;4997457;28;20185;-87
2023/06/24 18:22:19;;;;;;;0.20;0.10;;;25.80;1.00;;;;;;4983452;28;20490;-86
2023/06/24 18:24:51;;;;;;;0.50;0.50;;;24.70;1.00;;;;;;4981971;28;20623;-87
2023/06/24 18:27:34;;;;;;;0.28;0.28;;;23.90;1.00;;;;;;5000873;28;20077;-87
2023/06/24 18:30:00;;;;;;;0.68;0.60;;;25.00;1.00;;;;;;5001231;28;20049;-87
2023/06/24 18:32:26;;;;;;;0.40;0.20;;;24.60;1.00;;;;;;5019160;28;20046;-89
2023/06/24 18:34:56;;;;;;;0.75;0.63;;;24.60;1.00;;;;;;4984397;28;20054;-91
2023/06/24 18:37:42;;;;;;;0.20;0.20;;;24.50;1.00;;;;;;5003081;28;20136;-90
2023/06/24 18:40:09;;;;;;;0.40;0.40;;;24.40;1.00;;;;;;4985035;28;20075;-91
2023/06/24 18:42:47;;;;;;;0.65;0.55;;;24.30;1.00;;;;;;4985527;28;20580;-90
2023/06/24 18:45:26;;;;;;;;;;;;;;;;;;;;;
2023/06/24 18:47:57;;;;;;;0.45;0.43;;;24.40;4.20;;;;;;5001405;28;20049;-90
2023/06/24 18:50:32;;;;;;;0.35;0.35;;;24.30;10.70;;;;;;4986475;28;20038;-91
2023/06/24 18:53:10;;;;;;;0.52;0.52;;;24.30;38.80;;;;;;4975465;28;20104;-91
2023/06/24 18:55:41;;;;;;;0.50;0.40;;;24.20;54.00;;;;;;4982602;28;20468;-91
2023/06/24 18:58:09;;;;;;;0.73;0.47;;;24.20;62.10;;;;;;4970527;28;20053;-91
2023/06/24 19:00:46;;;;;;;0.57;0.20;;;23.40;59.20;;;;;;4986143;28;20050;-91
2023/06/24 19:03:19;;;;;;;0.40;0.40;;;24.20;79.00;;;;;;4969800;28;20069;-90
2023/06/24 19:06:00;;;;;;;1.00;0.43;;;24.10;99.90;;;;;;4985546;28;20045;-90
2023/06/24 19:08:31;;;;;;;0.45;0.45;;;24.10;69.80;;;;;;4984955;28;20187;-90
2023/06/24 19:10:57;;;;;;;0.80;0.32;;;24.00;96.20;;;;;;4990342;28;20512;-90
2023/06/24 19:13:36;;;;;;;0.40;0.40;;;23.90;98.00;;;;;;5016780;28;20046;-90
2023/06/24 19:16:05;;;;;;;0.30;0.30;;;23.90;99.90;;;;;;4968496;28;20042;-85
2023/06/24 19:18:40;;;;;;;0.32;0.32;;;23.80;99.90;;;;;;5006643;28;20053;-89
2023/06/24 19:21:11;;;;;;;0.30;0.30;;;23.80;99.90;;;;;;5021701;28;20100;-89
2023/06/24 19:23:40;;;;;;;0.43;0.40;;;23.70;99.90;;;;;;5018291;28;20038;-91
2023/06/24 19:26:25;;;;;;;1.00;1.00;;;24.20;99.90;;;;;;4987621;28;20049;-92
2023/06/24 19:29:50;;;;;;;;;;;;;;;;;;;;;
2023/06/24 19:32:37;;;;;;;0.20;0.20;;;23.70;99.90;;;;;;5016700;28;20085;-94
2023/06/24 19:35:08;;;;;;;0.32;0.32;;;23.60;99.90;;;;;;4987316;28;20048;-94
2023/06/24 19:37:48;;;;;;;0.30;0.30;;;22.80;99.90;;;;;;4987553;28;20042;-93
2023/06/24 19:40:25;;;;;;;0.45;0.43;;;23.50;99.90;;;;;;5012083;28;20042;-91
2023/06/24 19:42:54;;;;;;;0.50;0.47;;;23.50;99.90;;;;;;4983901;28;20050;-90
2023/06/24 19:45:53;;;;;;;;;;;;;;;;;;;;;
2023/06/24 19:48:42;;;;;;;0.63;0.55;;;23.30;99.90;;;;;;4990910;28;20486;-90
2023/06/24 19:51:11;;;;;;;0.30;0.30;;;23.40;99.90;;;;;;4999660;28;20569;-87
2023/06/24 19:53:36;;;;;;;0.43;0.28;;;23.40;99.90;;;;;;5006117;28;20393;-88
2023/06/24 19:56:05;;;;;;;0.65;0.65;;;23.40;99.90;;;;;;4997804;28;20058;-94
2023/06/24 19:58:39;;;;;;;0.22;0.22;;;23.30;99.90;;;;;;5002660;28;20064;-93
2023/06/24 20:01:10;;;;;;;0.45;0.40;;;23.30;1.00;;;;;;5005002;28;20038;-84
2023/06/24 20:03:36;;;;;;;0.80;0.47;;;23.20;1.00;;;;;;5006257;28;20121;-88
2023/06/24 20:06:05;;;;;;;0.63;0.55;;;23.20;1.00;;;;;;4972258;28;20104;-87
2023/06/24 20:08:31;;;;;;;0.47;0.43;;;23.10;1.00;;;;;;5014666;28;20041;-88
2023/06/24 20:10:56;;;;;;;0.50;0.50;;;23.10;1.00;;;;;;4989991;28;20065;-88
2023/06/24 20:13:22;;;;;;;0.65;0.55;;;23.00;74.20;;;;;;4975650;28;20062;-88
2023/06/24 20:15:48;;;;;;;0.50;0.30;;;23.00;99.90;;;;;;4999741;28;20184;-88
2023/06/24 20:18:23;;;;;;;0.20;0.20;;;22.90;99.90;;;;;;4983806;28;20081;-88
2023/06/24 20:20:49;;;;;;;0.38;0.38;;;22.90;99.90;;;;;;4993494;28;20073;-88
2023/06/24 20:23:18;;;;;;;0.50;0.45;;;22.90;99.90;;;;;;4996301;28;20050;-86
2023/06/24 20:25:46;;;;;;;0.30;0.30;;;22.80;99.90;;;;;;5007328;28;20125;-89
2023/06/24 20:28:16;;;;;;;0.52;0.40;;;22.70;99.90;;;;;;4976659;28;20060;-90